sensor_id;sensor_type;location;lat;lon;timestamp;pressure;altitude;pressure_sealevel;temperature;humidity
22872;BME280;11603;44.910;8.630;2023-05-14T00:01:16;100533.16;;;16.02;100.00
22872;BME280;11603;44.910;8.630;2023-05-14T00:03:42;100538.78;;;16.10;100.00
22872;BME280;11603;44.910;8.630;2023-05-14T00:06:08;100532.06;;;16.05;100.00
22872;BME280;11603;44.910;8.630;2023-05-14T00:08:35;100531.00;;;15.96;100.00
22872;BME280;11603;44.910;8.630;2023-05-14T00:11:00;100531.00;;;15.96;100.00
22872;BME280;11603;44.910;8.630;2023-05-14T00:13:26;100535.09;;;15.91;100.00
22872;BME280;11603;44.910;8.630;2023-05-14T00:15:51;100528.38;;;15.85;100.00
22872;BME280;11603;44.910;8.630;2023-05-14T00:18:17;100525.69;;;15.85;100.00
22872;BME280;11603;44.910;8.630;2023-05-14T00:20:42;100531.31;;;15.82;100.00
22872;BME280;11603;44.910;8.630;2023-05-14T00:23:08;100527.56;;;15.74;100.00
22872;BME280;11603;44.910;8.630;2023-05-14T00:25:35;100523.63;;;15.78;100.00
22872;BME280;11603;44.910;8.630;2023-05-14T00:28:00;100520.81;;;15.79;100.00
22872;BME280;11603;44.910;8.630;2023-05-14T00:30:26;100529.13;;;15.76;100.00
22872;BME280;11603;44.910;8.630;2023-05-14T00:32:52;100520.56;;;15.71;100.00
22872;BME280;11603;44.910;8.630;2023-05-14T00:35:17;100512.63;;;15.70;100.00
22872;BME280;11603;44.910;8.630;2023-05-14T00:37:44;100517.75;;;15.73;100.00
22872;BME280;11603;44.910;8.630;2023-05-14T00:40:10;100516.19;;;15.70;100.00
22872;BME280;11603;44.910;8.630;2023-05-14T00:42:38;100511.44;;;15.62;100.00
22872;BME280;11603;44.910;8.630;2023-05-14T00:45:04;100508.28;;;15.57;100.00
22872;BME280;11603;44.910;8.630;2023-05-14T00:47:30;100516.47;;;15.56;100.00
22872;BME280;11603;44.910;8.630;2023-05-14T00:49:56;100513.41;;;15.49;100.00
22872;BME280;11603;44.910;8.630;2023-05-14T00:52:21;100516.97;;;15.50;100.00
22872;BME280;11603;44.910;8.630;2023-05-14T00:54:47;100510.13;;;15.46;100.00
22872;BME280;11603;44.910;8.630;2023-05-14T00:57:13;100508.19;;;15.37;100.00
22872;BME280;11603;44.910;8.630;2023-05-14T00:59:39;100507.06;;;15.39;100.00
22872;BME280;11603;44.910;8.630;2023-05-14T01:02:06;100511.88;;;15.36;100.00
22872;BME280;11603;44.910;8.630;2023-05-14T01:04:32;100504.06;;;15.33;100.00
22872;BME280;11603;44.910;8.630;2023-05-14T01:09:54;100496.19;;;15.30;100.00
22872;BME280;11603;44.910;8.630;2023-05-14T01:12:48;100502.56;;;15.28;100.00
22872;BME280;11603;44.910;8.630;2023-05-14T01:15:20;100498.31;;;15.26;100.00
22872;BME280;11603;44.910;8.630;2023-05-14T01:17:56;100503.81;;;15.24;100.00
22872;BME280;11603;44.910;8.630;2023-05-14T01:20:24;100503.94;;;15.23;100.00
22872;BME280;11603;44.910;8.630;2023-05-14T01:22:50;100500.88;;;15.27;100.00
22872;BME280;11603;44.910;8.630;2023-05-14T01:25:15;100496.72;;;15.23;100.00
22872;BME280;11603;44.910;8.630;2023-05-14T01:30:39;100494.00;;;15.23;100.00
22872;BME280;11603;44.910;8.630;2023-05-14T01:33:13;100492.69;;;15.18;100.00
22872;BME280;11603;44.910;8.630;2023-05-14T01:35:40;100494.56;;;15.17;100.00
22872;BME280;11603;44.910;8.630;2023-05-14T01:38:12;100486.47;;;15.17;100.00
22872;BME280;11603;44.910;8.630;2023-05-14T01:40:38;100488.16;;;15.18;100.00
22872;BME280;11603;44.910;8.630;2023-05-14T01:43:04;100485.94;;;15.23;100.00
22872;BME280;11603;44.910;8.630;2023-05-14T01:45:31;100484.75;;;15.16;100.00
22872;BME280;11603;44.910;8.630;2023-05-14T01:47:58;100479.47;;;15.15;100.00
22872;BME280;11603;44.910;8.630;2023-05-14T01:50:24;100478.13;;;15.20;100.00
22872;BME280;11603;44.910;8.630;2023-05-14T01:52:50;100470.63;;;15.24;100.00
22872;BME280;11603;44.910;8.630;2023-05-14T01:55:17;100459.72;;;15.25;100.00
22872;BME280;11603;44.910;8.630;2023-05-14T01:57:43;100466.09;;;15.24;100.00
22872;BME280;11603;44.910;8.630;2023-05-14T02:00:09;100461.78;;;15.33;100.00
22872;BME280;11603;44.910;8.630;2023-05-14T02:02:40;100458.81;;;15.36;100.00
22872;BME280;11603;44.910;8.630;2023-05-14T02:05:09;100463.25;;;15.37;100.00
22872;BME280;11603;44.910;8.630;2023-05-14T02:07:35;100462.31;;;15.27;100.00
22872;BME280;11603;44.910;8.630;2023-05-14T02:10:00;100462.31;;;15.27;100.00
22872;BME280;11603;44.910;8.630;2023-05-14T02:12:26;100469.06;;;15.21;100.00
22872;BME280;11603;44.910;8.630;2023-05-14T02:14:52;100470.03;;;15.20;100.00
22872;BME280;11603;44.910;8.630;2023-05-14T02:17:17;100458.41;;;15.20;100.00
22872;BME280;11603;44.910;8.630;2023-05-14T02:19:43;100454.84;;;15.19;100.00
22872;BME280;11603;44.910;8.630;2023-05-14T02:22:09;100457.53;;;15.19;100.00
22872;BME280;11603;44.910;8.630;2023-05-14T02:24:34;100443.09;;;15.20;100.00
22872;BME280;11603;44.910;8.630;2023-05-14T02:27:00;100441.97;;;15.23;100.00
22872;BME280;11603;44.910;8.630;2023-05-14T02:29:26;100448.34;;;15.22;100.00
22872;BME280;11603;44.910;8.630;2023-05-14T02:31:51;100442.50;;;15.17;100.00
22872;BME280;11603;44.910;8.630;2023-05-14T02:34:17;100442.09;;;15.21;100.00
22872;BME280;11603;44.910;8.630;2023-05-14T02:36:43;100439.66;;;15.18;100.00
22872;BME280;11603;44.910;8.630;2023-05-14T02:39:08;100436.09;;;15.18;100.00
22872;BME280;11603;44.910;8.630;2023-05-14T02:41:34;100428.88;;;15.18;100.00
22872;BME280;11603;44.910;8.630;2023-05-14T02:43:59;100424.34;;;15.19;100.00
22872;BME280;11603;44.910;8.630;2023-05-14T02:46:25;100424.63;;;15.16;100.00
22872;BME280;11603;44.910;8.630;2023-05-14T02:48:50;100423.25;;;15.21;100.00
22872;BME280;11603;44.910;8.630;2023-05-14T02:51:18;100427.50;;;15.24;100.00
22872;BME280;11603;44.910;8.630;2023-05-14T02:53:43;100430.94;;;15.26;100.00
22872;BME280;11603;44.910;8.630;2023-05-14T02:56:09;100427.25;;;15.27;100.00
22872;BME280;11603;44.910;8.630;2023-05-14T02:58:34;100422.00;;;15.25;100.00
22872;BME280;11603;44.910;8.630;2023-05-14T03:01:00;100425.94;;;15.21;100.00
22872;BME280;11603;44.910;8.630;2023-05-14T03:03:25;100432.19;;;15.22;100.00
22872;BME280;11603;44.910;8.630;2023-05-14T03:05:51;100425.59;;;15.15;100.00
22872;BME280;11603;44.910;8.630;2023-05-14T03:08:16;100430.41;;;15.11;100.00
22872;BME280;11603;44.910;8.630;2023-05-14T03:10:42;100434.31;;;15.07;100.00
22872;BME280;11603;44.910;8.630;2023-05-14T03:13:07;100438.88;;;15.07;100.00
22872;BME280;11603;44.910;8.630;2023-05-14T03:15:33;100434.94;;;15.00;100.00
22872;BME280;11603;44.910;8.630;2023-05-14T03:17:59;100437.38;;;15.03;100.00
22872;BME280;11603;44.910;8.630;2023-05-14T03:20:25;100438.50;;;15.00;100.00
22872;BME280;11603;44.910;8.630;2023-05-14T03:22:51;100433.13;;;15.00;100.00
22872;BME280;11603;44.910;8.630;2023-05-14T03:25:16;100436.31;;;14.94;100.00
22872;BME280;11603;44.910;8.630;2023-05-14T03:27:42;100441.69;;;14.94;100.00
22872;BME280;11603;44.910;8.630;2023-05-14T03:30:08;100445.13;;;14.96;100.00
22872;BME280;11603;44.910;8.630;2023-05-14T03:32:33;100448.81;;;14.95;100.00
22872;BME280;11603;44.910;8.630;2023-05-14T03:34:59;100439.88;;;14.95;100.00
22872;BME280;11603;44.910;8.630;2023-05-14T03:37:24;100436.69;;;14.90;100.00
22872;BME280;11603;44.910;8.630;2023-05-14T03:39:50;100437.28;;;14.93;100.00
22872;BME280;11603;44.910;8.630;2023-05-14T03:42:15;100442.69;;;14.93;100.00
22872;BME280;11603;44.910;8.630;2023-05-14T03:44:41;100432.88;;;14.92;100.00
22872;BME280;11603;44.910;8.630;2023-05-14T03:47:06;100434.38;;;14.96;100.00
22872;BME280;11603;44.910;8.630;2023-05-14T03:49:32;100434.38;;;14.96;100.00
22872;BME280;11603;44.910;8.630;2023-05-14T03:51:57;100433.63;;;14.94;100.00
22872;BME280;11603;44.910;8.630;2023-05-14T03:54:24;100439.13;;;14.93;100.00
22872;BME280;11603;44.910;8.630;2023-05-14T03:56:50;100430.81;;;14.96;100.00
22872;BME280;11603;44.910;8.630;2023-05-14T03:59:16;100434.72;;;14.92;100.00
22872;BME280;11603;44.910;8.630;2023-05-14T04:01:43;100433.97;;;15.01;100.00
22872;BME280;11603;44.910;8.630;2023-05-14T04:04:08;100430.44;;;15.00;100.00
22872;BME280;11603;44.910;8.630;2023-05-14T04:06:34;100432.25;;;15.00;100.00
22872;BME280;11603;44.910;8.630;2023-05-14T04:09:01;100421.22;;;15.03;100.00
22872;BME280;11603;44.910;8.630;2023-05-14T04:11:26;100432.00;;;15.03;100.00
22872;BME280;11603;44.910;8.630;2023-05-14T04:13:51;100424.53;;;15.06;100.00
22872;BME280;11603;44.910;8.630;2023-05-14T04:16:17;100413.91;;;14.94;100.00
22872;BME280;11603;44.910;8.630;2023-05-14T04:18:43;100423.16;;;14.80;100.00
22872;BME280;11603;44.910;8.630;2023-05-14T04:21:08;100426.53;;;14.82;100.00
22872;BME280;11603;44.910;8.630;2023-05-14T04:23:33;100429.88;;;14.86;100.00
22872;BME280;11603;44.910;8.630;2023-05-14T04:25:59;100430.56;;;14.88;100.00
22872;BME280;11603;44.910;8.630;2023-05-14T04:28:24;100430.06;;;14.94;100.00
22872;BME280;11603;44.910;8.630;2023-05-14T04:30:50;100435.97;;;14.88;100.00
22872;BME280;11603;44.910;8.630;2023-05-14T04:33:16;100426.22;;;14.75;100.00
22872;BME280;11603;44.910;8.630;2023-05-14T04:35:43;100427.31;;;14.73;100.00
22872;BME280;11603;44.910;8.630;2023-05-14T04:38:09;100431.84;;;14.61;100.00
22872;BME280;11603;44.910;8.630;2023-05-14T04:40:35;100435.19;;;14.54;100.00
22872;BME280;11603;44.910;8.630;2023-05-14T04:43:01;100432.13;;;14.58;100.00
22872;BME280;11603;44.910;8.630;2023-05-14T04:45:27;100432.97;;;14.59;100.00
22872;BME280;11603;44.910;8.630;2023-05-14T04:47:52;100430.19;;;14.49;100.00
22872;BME280;11603;44.910;8.630;2023-05-14T04:50:18;100433.72;;;14.50;100.00
22872;BME280;11603;44.910;8.630;2023-05-14T04:52:43;100439.94;;;14.50;100.00
22872;BME280;11603;44.910;8.630;2023-05-14T04:55:09;100429.31;;;14.49;100.00
22872;BME280;11603;44.910;8.630;2023-05-14T04:57:34;100428.94;;;14.42;100.00
22872;BME280;11603;44.910;8.630;2023-05-14T05:00:00;100429.06;;;14.40;100.00
22872;BME280;11603;44.910;8.630;2023-05-14T05:02:25;100438.47;;;14.46;100.00
22872;BME280;11603;44.910;8.630;2023-05-14T05:04:51;100442.28;;;14.55;100.00
22872;BME280;11603;44.910;8.630;2023-05-14T05:07:16;100442.38;;;14.64;100.00
22872;BME280;11603;44.910;8.630;2023-05-14T05:09:42;100448.09;;;14.71;100.00
22872;BME280;11603;44.910;8.630;2023-05-14T05:12:08;100447.88;;;14.74;100.00
22872;BME280;11603;44.910;8.630;2023-05-14T05:14:33;100450.19;;;14.78;100.00
22872;BME280;11603;44.910;8.630;2023-05-14T05:16:59;100444.81;;;14.78;100.00
22872;BME280;11603;44.910;8.630;2023-05-14T05:19:25;100453.75;;;14.79;100.00
22872;BME280;11603;44.910;8.630;2023-05-14T05:21:50;100453.09;;;14.87;100.00
22872;BME280;11603;44.910;8.630;2023-05-14T05:24:16;100447.09;;;14.94;100.00
22872;BME280;11603;44.910;8.630;2023-05-14T05:26:41;100451.88;;;14.91;100.00
22872;BME280;11603;44.910;8.630;2023-05-14T05:29:07;100456.78;;;14.97;100.00
22872;BME280;11603;44.910;8.630;2023-05-14T05:31:32;100457.94;;;15.04;100.00
22872;BME280;11603;44.910;8.630;2023-05-14T05:33:58;100456.22;;;15.03;100.00
22872;BME280;11603;44.910;8.630;2023-05-14T05:36:24;100449.88;;;15.04;100.00
22872;BME280;11603;44.910;8.630;2023-05-14T05:38:50;100460.66;;;15.04;100.00
22872;BME280;11603;44.910;8.630;2023-05-14T05:41:15;100453.06;;;14.98;100.00
22872;BME280;11603;44.910;8.630;2023-05-14T05:43:41;100454.66;;;15.00;100.00
22872;BME280;11603;44.910;8.630;2023-05-14T05:46:06;100447.69;;;14.98;100.00
22872;BME280;11603;44.910;8.630;2023-05-14T05:48:32;100446.72;;;14.99;100.00
22872;BME280;11603;44.910;8.630;2023-05-14T05:50:57;100452.84;;;15.01;100.00
22872;BME280;11603;44.910;8.630;2023-05-14T05:53:23;100446.19;;;15.05;100.00
22872;BME280;11603;44.910;8.630;2023-05-14T05:55:48;100453.03;;;15.09;100.00
22872;BME280;11603;44.910;8.630;2023-05-14T05:58:17;100448.50;;;15.09;100.00
22872;BME280;11603;44.910;8.630;2023-05-14T06:00:43;100437.66;;;15.00;100.00
22872;BME280;11603;44.910;8.630;2023-05-14T06:03:08;100433.72;;;15.04;100.00
22872;BME280;11603;44.910;8.630;2023-05-14T06:05:33;100428.25;;;14.94;100.00
22872;BME280;11603;44.910;8.630;2023-05-14T06:07:59;100433.16;;;14.89;100.00
22872;BME280;11603;44.910;8.630;2023-05-14T06:10:25;100428.13;;;14.96;100.00
22872;BME280;11603;44.910;8.630;2023-05-14T06:12:50;100434.56;;;15.04;100.00
22872;BME280;11603;44.910;8.630;2023-05-14T06:15:16;100439.88;;;14.95;100.00
22872;BME280;11603;44.910;8.630;2023-05-14T06:17:41;100437.19;;;14.83;100.00
22872;BME280;11603;44.910;8.630;2023-05-14T06:20:07;100429.22;;;14.93;100.00
22872;BME280;11603;44.910;8.630;2023-05-14T06:22:33;100434.00;;;14.90;100.00
22872;BME280;11603;44.910;8.630;2023-05-14T06:24:58;100427.84;;;14.99;100.00
22872;BME280;11603;44.910;8.630;2023-05-14T06:27:24;100421.56;;;15.09;100.00
22872;BME280;11603;44.910;8.630;2023-05-14T06:29:49;100427.72;;;15.00;100.00
22872;BME280;11603;44.910;8.630;2023-05-14T06:32:15;100421.50;;;14.89;100.00
22872;BME280;11603;44.910;8.630;2023-05-14T06:34:41;100430.03;;;15.05;100.00
22872;BME280;11603;44.910;8.630;2023-05-14T06:37:07;100418.75;;;15.11;100.00
22872;BME280;11603;44.910;8.630;2023-05-14T06:39:34;100433.03;;;15.22;100.00
22872;BME280;11603;44.910;8.630;2023-05-14T06:42:00;100422.84;;;15.26;100.00
22872;BME280;11603;44.910;8.630;2023-05-14T06:44:25;100422.34;;;15.32;100.00
22872;BME280;11603;44.910;8.630;2023-05-14T06:46:51;100419.13;;;15.38;100.00
22872;BME280;11603;44.910;8.630;2023-05-14T06:49:17;100420.81;;;15.39;100.00
22872;BME280;11603;44.910;8.630;2023-05-14T06:51:42;100421.09;;;15.36;100.00
22872;BME280;11603;44.910;8.630;2023-05-14T06:54:08;100421.38;;;15.33;100.00
22872;BME280;11603;44.910;8.630;2023-05-14T06:56:33;100422.28;;;15.43;100.00
22872;BME280;11603;44.910;8.630;2023-05-14T06:58:59;100430.22;;;15.56;100.00
22872;BME280;11603;44.910;8.630;2023-05-14T07:01:24;100426.59;;;15.66;100.00
22872;BME280;11603;44.910;8.630;2023-05-14T07:03:50;100428.88;;;15.71;100.00
22872;BME280;11603;44.910;8.630;2023-05-14T07:06:15;100432.31;;;15.73;100.00
22872;BME280;11603;44.910;8.630;2023-05-14T07:08:42;100441.06;;;15.65;100.00
22872;BME280;11603;44.910;8.630;2023-05-14T07:11:10;100435.53;;;15.67;100.00
22872;BME280;11603;44.910;8.630;2023-05-14T07:13:36;100441.22;;;15.64;100.00
22872;BME280;11603;44.910;8.630;2023-05-14T07:16:01;100438.44;;;15.75;100.00
22872;BME280;11603;44.910;8.630;2023-05-14T07:18:26;100430.94;;;15.79;100.00
22872;BME280;11603;44.910;8.630;2023-05-14T07:20:52;100437.50;;;16.06;100.00
22872;BME280;11603;44.910;8.630;2023-05-14T07:23:18;100438.19;;;16.08;100.00
22872;BME280;11603;44.910;8.630;2023-05-14T07:25:43;100434.16;;;16.24;100.00
22872;BME280;11603;44.910;8.630;2023-05-14T07:28:09;100437.75;;;16.34;100.00
22872;BME280;11603;44.910;8.630;2023-05-14T07:30:34;100440.31;;;16.35;100.00
22872;BME280;11603;44.910;8.630;2023-05-14T07:33:00;100433.97;;;16.46;100.00
22872;BME280;11603;44.910;8.630;2023-05-14T07:35:25;100420.47;;;16.46;100.00
22872;BME280;11603;44.910;8.630;2023-05-14T07:37:51;100427.41;;;16.39;100.00
22872;BME280;11603;44.910;8.630;2023-05-14T07:40:17;100425.56;;;16.39;100.00
22872;BME280;11603;44.910;8.630;2023-05-14T07:42:42;100428.97;;;16.41;100.00
22872;BME280;11603;44.910;8.630;2023-05-14T07:45:08;100429.53;;;16.35;100.00
22872;BME280;11603;44.910;8.630;2023-05-14T07:47:34;100423.59;;;16.51;100.00
22872;BME280;11603;44.910;8.630;2023-05-14T07:49:59;100421.16;;;16.69;100.00
22872;BME280;11603;44.910;8.630;2023-05-14T07:52:25;100420.00;;;16.71;100.00
22872;BME280;11603;44.910;8.630;2023-05-14T07:54:51;100426.38;;;16.70;100.00
22872;BME280;11603;44.910;8.630;2023-05-14T07:57:18;100412.19;;;16.78;100.00
22872;BME280;11603;44.910;8.630;2023-05-14T07:59:43;100421.41;;;16.66;100.00
22872;BME280;11603;44.910;8.630;2023-05-14T08:02:09;100414.78;;;16.79;100.00
22872;BME280;11603;44.910;8.630;2023-05-14T08:04:36;100411.22;;;16.88;100.00
22872;BME280;11603;44.910;8.630;2023-05-14T08:07:02;100407.84;;;17.06;100.00
22872;BME280;11603;44.910;8.630;2023-05-14T08:09:28;100403.56;;;17.13;100.00
22872;BME280;11603;44.910;8.630;2023-05-14T08:11:53;100411.78;;;16.92;100.00
22872;BME280;11603;44.910;8.630;2023-05-14T08:14:19;100399.81;;;16.75;100.00
22872;BME280;11603;44.910;8.630;2023-05-14T08:16:45;100398.66;;;16.59;100.00
22872;BME280;11603;44.910;8.630;2023-05-14T08:19:12;100400.25;;;16.31;100.00
22872;BME280;11603;44.910;8.630;2023-05-14T08:21:37;100400.47;;;16.58;100.00
22872;BME280;11603;44.910;8.630;2023-05-14T08:24:03;100396.06;;;16.57;100.00
22872;BME280;11603;44.910;8.630;2023-05-14T08:26:28;100387.22;;;16.55;100.00
22872;BME280;11603;44.910;8.630;2023-05-14T08:28:54;100389.69;;;16.58;100.00
22872;BME280;11603;44.910;8.630;2023-05-14T08:31:19;100390.59;;;16.78;100.00
22872;BME280;11603;44.910;8.630;2023-05-14T08:33:45;100383.91;;;16.72;100.00
22872;BME280;11603;44.910;8.630;2023-05-14T08:36:10;100385.19;;;16.78;100.00
22872;BME280;11603;44.910;8.630;2023-05-14T08:38:37;100383.03;;;16.62;100.00
22872;BME280;11603;44.910;8.630;2023-05-14T08:41:04;100379.63;;;16.70;100.00
22872;BME280;11603;44.910;8.630;2023-05-14T08:43:46;100386.06;;;16.78;100.00
22872;BME280;11603;44.910;8.630;2023-05-14T08:46:16;100373.69;;;17.05;100.00
22872;BME280;11603;44.910;8.630;2023-05-14T08:48:42;100373.53;;;17.06;100.00
22872;BME280;11603;44.910;8.630;2023-05-14T08:51:12;100375.97;;;17.19;100.00
22872;BME280;11603;44.910;8.630;2023-05-14T08:53:37;100367.00;;;17.18;100.00
22872;BME280;11603;44.910;8.630;2023-05-14T08:56:05;100365.72;;;17.42;100.00
22872;BME280;11603;44.910;8.630;2023-05-14T08:58:32;100363.81;;;17.71;100.00
22872;BME280;11603;44.910;8.630;2023-05-14T09:00:58;100360.69;;;17.56;100.00
22872;BME280;11603;44.910;8.630;2023-05-14T09:03:24;100363.56;;;17.74;100.00
22872;BME280;11603;44.910;8.630;2023-05-14T09:05:50;100357.56;;;17.51;100.00
22872;BME280;11603;44.910;8.630;2023-05-14T09:08:16;100356.69;;;17.70;100.00
22872;BME280;11603;44.910;8.630;2023-05-14T09:10:41;100359.38;;;17.79;100.00
22872;BME280;11603;44.910;8.630;2023-05-14T09:13:07;100360.00;;;18.10;100.00
22872;BME280;11603;44.910;8.630;2023-05-14T09:15:53;100354.69;;;18.18;100.00
22872;BME280;11603;44.910;8.630;2023-05-14T09:18:19;100346.34;;;18.30;100.00
22872;BME280;11603;44.910;8.630;2023-05-14T09:20:46;100351.63;;;18.31;100.00
22872;BME280;11603;44.910;8.630;2023-05-14T09:23:12;100347.00;;;18.41;100.00
22872;BME280;11603;44.910;8.630;2023-05-14T09:25:37;100341.69;;;18.49;100.00
22872;BME280;11603;44.910;8.630;2023-05-14T09:28:07;100346.16;;;18.13;100.00
22872;BME280;11603;44.910;8.630;2023-05-14T09:30:33;100341.53;;;18.51;100.00
22872;BME280;11603;44.910;8.630;2023-05-14T09:33:02;100338.19;;;18.84;100.00
22872;BME280;11603;44.910;8.630;2023-05-14T09:35:28;100345.22;;;18.59;100.00
22872;BME280;11603;44.910;8.630;2023-05-14T09:37:54;100343.06;;;18.36;100.00
22872;BME280;11603;44.910;8.630;2023-05-14T09:40:21;100338.75;;;18.15;100.00
22872;BME280;11603;44.910;8.630;2023-05-14T09:42:47;100330.88;;;17.95;100.00
22872;BME280;11603;44.910;8.630;2023-05-14T09:45:14;100335.28;;;17.86;100.00
22872;BME280;11603;44.910;8.630;2023-05-14T09:47:40;100335.38;;;17.57;100.00
22872;BME280;11603;44.910;8.630;2023-05-14T09:50:06;100333.50;;;17.58;100.00
22872;BME280;11603;44.910;8.630;2023-05-14T09:52:32;100328.09;;;17.48;100.00
22872;BME280;11603;44.910;8.630;2023-05-14T09:54:58;100335.94;;;17.51;100.00
22872;BME280;11603;44.910;8.630;2023-05-14T09:57:24;100329.41;;;17.44;100.00
22872;BME280;11603;44.910;8.630;2023-05-14T09:59:51;100334.84;;;17.34;100.00
22872;BME280;11603;44.910;8.630;2023-05-14T10:02:25;100325.41;;;17.48;100.00
22872;BME280;11603;44.910;8.630;2023-05-14T10:04:56;100323.13;;;17.44;100.00
22872;BME280;11603;44.910;8.630;2023-05-14T10:07:28;100316.72;;;17.54;100.00
22872;BME280;11603;44.910;8.630;2023-05-14T10:10:02;100315.44;;;17.49;100.00
22872;BME280;11603;44.910;8.630;2023-05-14T10:12:32;100316.56;;;17.65;100.00
22872;BME280;11603;44.910;8.630;2023-05-14T10:15:01;100317.78;;;17.81;100.00
22872;BME280;11603;44.910;8.630;2023-05-14T10:17:31;100307.16;;;17.79;100.00
22872;BME280;11603;44.910;8.630;2023-05-14T10:19:59;100314.16;;;17.62;100.00
22872;BME280;11603;44.910;8.630;2023-05-14T10:22:30;100313.72;;;17.57;100.00
22872;BME280;11603;44.910;8.630;2023-05-14T10:24:58;100317.16;;;17.69;100.00
22872;BME280;11603;44.910;8.630;2023-05-14T10:27:24;100307.16;;;17.79;100.00
22872;BME280;11603;44.910;8.630;2023-05-14T10:29:51;100308.59;;;17.73;100.00
22872;BME280;11603;44.910;8.630;2023-05-14T10:32:21;100309.69;;;17.81;100.00
22872;BME280;11603;44.910;8.630;2023-05-14T10:34:49;100309.84;;;17.79;100.00
22872;BME280;11603;44.910;8.630;2023-05-14T10:37:17;100298.66;;;17.92;100.00
22872;BME280;11603;44.910;8.630;2023-05-14T10:39:51;100293.47;;;18.08;100.00
22872;BME280;11603;44.910;8.630;2023-05-14T10:42:22;100293.13;;;18.20;100.00
22872;BME280;11603;44.910;8.630;2023-05-14T10:44:56;100291.22;;;18.31;100.00
22872;BME280;11603;44.910;8.630;2023-05-14T10:47:27;100281.22;;;18.31;100.00
22872;BME280;11603;44.910;8.630;2023-05-14T10:49:55;100278.53;;;18.31;100.00
22872;BME280;11603;44.910;8.630;2023-05-14T10:52:22;100273.53;;;18.27;100.00
22872;BME280;11603;44.910;8.630;2023-05-14T10:57:21;100272.25;;;18.48;100.00
22872;BME280;11603;44.910;8.630;2023-05-14T10:59:48;100264.88;;;18.23;100.00
22872;BME280;11603;44.910;8.630;2023-05-14T11:04:54;100264.88;;;18.23;100.00
22872;BME280;11603;44.910;8.630;2023-05-14T11:07:24;100259.78;;;18.38;100.00
22872;BME280;11603;44.910;8.630;2023-05-14T11:09:52;100260.28;;;18.51;100.00
22872;BME280;11603;44.910;8.630;2023-05-14T11:12:18;100253.66;;;18.63;100.00
22872;BME280;11603;44.910;8.630;2023-05-14T11:14:44;100252.97;;;18.79;100.00
22872;BME280;11603;44.910;8.630;2023-05-14T11:17:11;100250.56;;;19.19;100.00
22872;BME280;11603;44.910;8.630;2023-05-14T11:19:36;100242.69;;;19.60;100.00
22872;BME280;11603;44.910;8.630;2023-05-14T11:22:02;100239.13;;;19.59;100.00
22872;BME280;11603;44.910;8.630;2023-05-14T11:24:27;100225.72;;;19.58;100.00
22872;BME280;11603;44.910;8.630;2023-05-14T11:26:53;100222.47;;;19.46;100.00
22872;BME280;11603;44.910;8.630;2023-05-14T11:29:20;100221.31;;;19.31;100.00
22872;BME280;11603;44.910;8.630;2023-05-14T11:31:46;100210.50;;;19.39;100.00
22872;BME280;11603;44.910;8.630;2023-05-14T11:34:11;100210.56;;;19.81;100.00
22872;BME280;11603;44.910;8.630;2023-05-14T11:36:37;100195.88;;;20.00;100.00
22872;BME280;11603;44.910;8.630;2023-05-14T11:39:02;100194.75;;;20.26;100.00
22872;BME280;11603;44.910;8.630;2023-05-14T11:41:28;100189.00;;;20.29;100.00
22872;BME280;11603;44.910;8.630;2023-05-14T11:43:57;100183.59;;;20.38;100.00
22872;BME280;11603;44.910;8.630;2023-05-14T11:46:22;100181.56;;;20.48;100.00
22872;BME280;11603;44.910;8.630;2023-05-14T11:48:49;100174.94;;;20.58;100.00
22872;BME280;11603;44.910;8.630;2023-05-14T11:51:15;100178.34;;;20.44;100.00
22872;BME280;11603;44.910;8.630;2023-05-14T11:53:41;100171.03;;;20.61;100.00
22872;BME280;11603;44.910;8.630;2023-05-14T11:56:06;100167.97;;;20.80;100.00
22872;BME280;11603;44.910;8.630;2023-05-14T11:58:32;100161.84;;;20.86;100.00
22872;BME280;11603;44.910;8.630;2023-05-14T12:00:58;100163.00;;;21.08;100.00
22872;BME280;11603;44.910;8.630;2023-05-14T12:03:24;100155.88;;;21.23;100.00
22872;BME280;11603;44.910;8.630;2023-05-14T12:05:54;100152.25;;;21.31;100.00
22872;BME280;11603;44.910;8.630;2023-05-14T12:08:30;100147.91;;;21.61;100.00
22872;BME280;11603;44.910;8.630;2023-05-14T12:10:59;100147.59;;;21.47;100.00
22872;BME280;11603;44.910;8.630;2023-05-14T12:13:26;100147.56;;;20.92;100.00
22872;BME280;11603;44.910;8.630;2023-05-14T12:15:54;100138.69;;;21.14;100.00
22872;BME280;11603;44.910;8.630;2023-05-14T12:18:20;100136.25;;;21.44;100.00
22872;BME280;11603;44.910;8.630;2023-05-14T12:20:49;100129.38;;;21.56;97.96
22872;BME280;11603;44.910;8.630;2023-05-14T12:23:16;100135.88;;;21.47;89.41
22872;BME280;11603;44.910;8.630;2023-05-14T12:25:49;100118.06;;;21.36;89.56
22872;BME280;11603;44.910;8.630;2023-05-14T12:28:16;100120.78;;;21.36;89.34
22872;BME280;11603;44.910;8.630;2023-05-14T12:30:41;100118.44;;;21.25;90.57
22872;BME280;11603;44.910;8.630;2023-05-14T12:33:07;100110.97;;;21.27;88.41
22872;BME280;11603;44.910;8.630;2023-05-14T12:35:32;100114.78;;;20.86;94.39
22872;BME280;11603;44.910;8.630;2023-05-14T12:37:58;100116.97;;;20.90;95.36
22872;BME280;11603;44.910;8.630;2023-05-14T12:40:23;100101.97;;;21.19;98.36
22872;BME280;11603;44.910;8.630;2023-05-14T12:42:49;100100.22;;;21.34;88.60
22872;BME280;11603;44.910;8.630;2023-05-14T12:45:14;100087.97;;;21.69;90.57
22872;BME280;11603;44.910;8.630;2023-05-14T12:47:40;100088.66;;;22.02;88.21